sensor_id;sensor_type;location;lat;lon;timestamp;pressure;altitude;pressure_sealevel;temperature;humidity
78144;BME280;67394;52.522;13.622;2023-02-18T00:00:17;100866.13;;;6.41;69.28
78144;BME280;67394;52.522;13.622;2023-02-18T00:02:44;100860.31;;;6.48;68.72
78144;BME280;67394;52.522;13.622;2023-02-18T00:05:12;100859.34;;;6.42;69.78
78144;BME280;67394;52.522;13.622;2023-02-18T00:07:44;100859.31;;;6.40;69.71
78144;BME280;67394;52.522;13.622;2023-02-18T00:10:12;100866.03;;;6.35;69.60
78144;BME280;67394;52.522;13.622;2023-02-18T00:12:39;100866.81;;;6.33;70.08
78144;BME280;67394;52.522;13.622;2023-02-18T00:15:06;100866.03;;;6.35;69.94
78144;BME280;67394;52.522;13.622;2023-02-18T00:17:32;100859.22;;;6.34;69.88
78144;BME280;67394;52.522;13.622;2023-02-18T00:19:59;100871.97;;;6.37;69.57
78144;BME280;67394;52.522;13.622;2023-02-18T00:22:26;100869.44;;;6.37;70.64
78144;BME280;67394;52.522;13.622;2023-02-18T00:24:52;100877.97;;;6.39;69.84
78144;BME280;67394;52.522;13.622;2023-02-18T00:27:18;100886.50;;;6.41;70.08
78144;BME280;67394;52.522;13.622;2023-02-18T00:29:44;100880.50;;;6.39;70.62
78144;BME280;67394;52.522;13.622;2023-02-18T00:32:11;100878.88;;;6.43;69.90
78144;BME280;67394;52.522;13.622;2023-02-18T00:34:37;100874.59;;;6.40;70.71
78144;BME280;67394;52.522;13.622;2023-02-18T00:37:04;100877.16;;;6.42;70.43
78144;BME280;67394;52.522;13.622;2023-02-18T00:39:30;100879.56;;;6.34;70.73
78144;BME280;67394;52.522;13.622;2023-02-18T00:41:56;100879.44;;;6.28;70.94
78144;BME280;67394;52.522;13.622;2023-02-18T00:44:23;100881.06;;;6.26;71.80
78144;BME280;67394;52.522;13.622;2023-02-18T00:46:49;100892.97;;;6.27;71.02
78144;BME280;67394;52.522;13.622;2023-02-18T00:49:15;100887.66;;;6.16;71.60
78144;BME280;67394;52.522;13.622;2023-02-18T00:51:42;100895.22;;;6.12;71.76
78144;BME280;67394;52.522;13.622;2023-02-18T00:54:08;100882.50;;;6.12;71.94
78144;BME280;67394;52.522;13.622;2023-02-18T00:56:35;100881.53;;;6.07;72.12
78144;BME280;67394;52.522;13.622;2023-02-18T00:59:01;100892.56;;;6.07;71.88
78144;BME280;67394;52.522;13.622;2023-02-18T01:01:28;100883.91;;;5.99;72.86
78144;BME280;67394;52.522;13.622;2023-02-18T01:03:54;100891.47;;;5.96;72.36
78144;BME280;67394;52.522;13.622;2023-02-18T01:06:20;100894.00;;;5.96;72.96
78144;BME280;67394;52.522;13.622;2023-02-18T01:08:47;100885.47;;;5.93;72.71
78144;BME280;67394;52.522;13.622;2023-02-18T01:11:13;100884.56;;;5.91;72.44
78144;BME280;67394;52.522;13.622;2023-02-18T01:13:40;100887.94;;;5.90;73.28
78144;BME280;67394;52.522;13.622;2023-02-18T01:16:07;100887.72;;;5.80;73.59
78144;BME280;67394;52.522;13.622;2023-02-18T01:18:35;100885.06;;;5.76;73.45
78144;BME280;67394;52.522;13.622;2023-02-18T01:21:01;100883.16;;;5.67;73.75
78144;BME280;67394;52.522;13.622;2023-02-18T01:23:28;100879.91;;;5.74;73.10
78144;BME280;67394;52.522;13.622;2023-02-18T01:25:56;100879.88;;;5.71;73.52
78144;BME280;67394;52.522;13.622;2023-02-18T01:28:23;100878.16;;;5.70;73.53
78144;BME280;67394;52.522;13.622;2023-02-18T01:30:49;100880.75;;;5.72;73.44
78144;BME280;67394;52.522;13.622;2023-02-18T01:33:18;100885.63;;;5.64;74.05
78144;BME280;67394;52.522;13.622;2023-02-18T01:35:45;100879.72;;;5.65;73.58
78144;BME280;67394;52.522;13.622;2023-02-18T01:38:11;100888.16;;;5.64;73.71
78144;BME280;67394;52.522;13.622;2023-02-18T01:40:45;100886.59;;;5.69;73.34
78144;BME280;67394;52.522;13.622;2023-02-18T01:43:13;100880.63;;;5.67;74.03
78144;BME280;67394;52.522;13.622;2023-02-18T01:45:51;100878.03;;;5.66;73.82
78144;BME280;67394;52.522;13.622;2023-02-18T01:48:31;100881.38;;;5.63;73.78
78144;BME280;67394;52.522;13.622;2023-02-18T01:53:38;100876.97;;;5.56;74.29
78144;BME280;67394;52.522;13.622;2023-02-18T01:56:10;100882.09;;;5.58;74.00
78144;BME280;67394;52.522;13.622;2023-02-18T01:58:39;100882.78;;;5.52;74.21
78144;BME280;67394;52.522;13.622;2023-02-18T02:01:06;100888.81;;;5.56;73.94
78144;BME280;67394;52.522;13.622;2023-02-18T02:03:33;100892.31;;;5.59;74.13
78144;BME280;67394;52.522;13.622;2023-02-18T02:05:59;100888.03;;;5.58;73.13
78144;BME280;67394;52.522;13.622;2023-02-18T02:08:27;100893.78;;;5.51;74.30
78144;BME280;67394;52.522;13.622;2023-02-18T02:11:06;100886.25;;;5.54;73.57
78144;BME280;67394;52.522;13.622;2023-02-18T02:14:06;100886.16;;;5.51;73.73
78144;BME280;67394;52.522;13.622;2023-02-18T02:16:49;100885.38;;;5.53;73.78
78144;BME280;67394;52.522;13.622;2023-02-18T02:22:28;100895.53;;;5.53;74.04
78144;BME280;67394;52.522;13.622;2023-02-18T02:25:18;100896.38;;;5.52;73.37
78144;BME280;67394;52.522;13.622;2023-02-18T02:28:07;100893.88;;;5.54;73.78
78144;BME280;67394;52.522;13.622;2023-02-18T02:31:09;100898.13;;;5.55;73.70
78144;BME280;67394;52.522;13.622;2023-02-18T02:37:08;100899.00;;;5.56;73.28
78144;BME280;67394;52.522;13.622;2023-02-18T02:45:23;100899.59;;;5.45;73.71
78144;BME280;67394;52.522;13.622;2023-02-18T02:53:20;100915.75;;;5.47;73.88
78144;BME280;67394;52.522;13.622;2023-02-18T02:55:48;100907.31;;;5.48;73.69
78144;BME280;67394;52.522;13.622;2023-02-18T02:58:16;100920.88;;;5.49;73.98
78144;BME280;67394;52.522;13.622;2023-02-18T03:03:41;100913.81;;;5.37;74.30
78144;BME280;67394;52.522;13.622;2023-02-18T03:08:44;100904.56;;;5.41;73.44
78144;BME280;67394;52.522;13.622;2023-02-18T03:11:17;100919.66;;;5.35;74.20
78144;BME280;67394;52.522;13.622;2023-02-18T03:19:19;100910.50;;;5.40;73.76
78144;BME280;67394;52.522;13.622;2023-02-18T03:22:18;100909.59;;;5.38;73.57
78144;BME280;67394;52.522;13.622;2023-02-18T03:24:49;100913.59;;;5.28;74.42
78144;BME280;67394;52.522;13.622;2023-02-18T03:27:20;100916.97;;;5.29;73.72
78144;BME280;67394;52.522;13.622;2023-02-18T03:29:53;100916.94;;;5.27;74.22
78144;BME280;67394;52.522;13.622;2023-02-18T03:32:22;100920.44;;;5.32;73.93
78144;BME280;67394;52.522;13.622;2023-02-18T03:34:58;100913.69;;;5.33;74.05
78144;BME280;67394;52.522;13.622;2023-02-18T03:37:25;100912.13;;;5.38;73.93
78144;BME280;67394;52.522;13.622;2023-02-18T03:39:55;100917.22;;;5.38;73.59
78144;BME280;67394;52.522;13.622;2023-02-18T03:42:32;100913.00;;;5.38;73.82
78144;BME280;67394;52.522;13.622;2023-02-18T03:45:06;100909.72;;;5.44;72.86
78144;BME280;67394;52.522;13.622;2023-02-18T03:47:32;100905.41;;;5.41;73.28
78144;BME280;67394;52.522;13.622;2023-02-18T03:49:59;100923.22;;;5.41;73.13
78144;BME280;67394;52.522;13.622;2023-02-18T03:52:25;100921.59;;;5.45;72.48
78144;BME280;67394;52.522;13.622;2023-02-18T03:54:52;100919.97;;;5.47;72.84
78144;BME280;67394;52.522;13.622;2023-02-18T03:57:18;100921.66;;;5.46;72.85
78144;BME280;67394;52.522;13.622;2023-02-18T03:59:44;100917.25;;;5.41;73.00
78144;BME280;67394;52.522;13.622;2023-02-18T04:02:11;100920.41;;;5.31;72.79
78144;BME280;67394;52.522;13.622;2023-02-18T04:04:37;100916.34;;;5.37;72.82
78144;BME280;67394;52.522;13.622;2023-02-18T04:07:03;100924.75;;;5.35;72.68
78144;BME280;67394;52.522;13.622;2023-02-18T04:09:30;100922.16;;;5.33;72.45
78144;BME280;67394;52.522;13.622;2023-02-18T04:11:56;100923.19;;;5.40;72.31
78144;BME280;67394;52.522;13.622;2023-02-18T04:14:22;100930.66;;;5.34;72.29
78144;BME280;67394;52.522;13.622;2023-02-18T04:16:48;100922.16;;;5.33;72.42
78144;BME280;67394;52.522;13.622;2023-02-18T04:19:16;100917.84;;;5.31;72.74
78144;BME280;67394;52.522;13.622;2023-02-18T04:21:42;100919.66;;;5.35;72.82
78144;BME280;67394;52.522;13.622;2023-02-18T04:24:08;100931.59;;;5.37;72.10
78144;BME280;67394;52.522;13.622;2023-02-18T04:26:35;100925.63;;;5.35;72.24
78144;BME280;67394;52.522;13.622;2023-02-18T04:29:04;100932.25;;;5.30;71.73
78144;BME280;67394;52.522;13.622;2023-02-18T04:31:31;100928.03;;;5.31;72.39
78144;BME280;67394;52.522;13.622;2023-02-18T04:33:57;100944.91;;;5.27;72.16
78144;BME280;67394;52.522;13.622;2023-02-18T04:36:24;100947.47;;;5.29;72.02
78144;BME280;67394;52.522;13.622;2023-02-18T04:38:50;100947.22;;;5.20;72.49
78144;BME280;67394;52.522;13.622;2023-02-18T04:41:16;100942.41;;;5.30;71.39
78144;BME280;67394;52.522;13.622;2023-02-18T04:43:43;100945.66;;;5.25;71.87
78144;BME280;67394;52.522;13.622;2023-02-18T04:46:09;100955.09;;;5.29;71.98
78144;BME280;67394;52.522;13.622;2023-02-18T04:48:36;100939.78;;;5.26;72.54
78144;BME280;67394;52.522;13.622;2023-02-18T04:51:03;100944.81;;;5.24;72.00
78144;BME280;67394;52.522;13.622;2023-02-18T04:53:29;100946.28;;;5.16;72.81
78144;BME280;67394;52.522;13.622;2023-02-18T04:55:55;100946.94;;;5.07;73.30
78144;BME280;67394;52.522;13.622;2023-02-18T04:58:22;100941.13;;;5.13;72.56
78144;BME280;67394;52.522;13.622;2023-02-18T05:00:48;100955.31;;;5.05;72.86
78144;BME280;67394;52.522;13.622;2023-02-18T05:03:15;100953.75;;;5.10;73.13
78144;BME280;67394;52.522;13.622;2023-02-18T05:05:45;100946.06;;;5.07;72.78
78144;BME280;67394;52.522;13.622;2023-02-18T05:08:16;100948.69;;;5.11;72.89
78144;BME280;67394;52.522;13.622;2023-02-18T05:10:45;100943.66;;;5.13;72.60
78144;BME280;67394;52.522;13.622;2023-02-18T05:13:11;100944.38;;;5.07;72.70
78144;BME280;67394;52.522;13.622;2023-02-18T05:15:38;100943.72;;;5.14;72.53
78144;BME280;67394;52.522;13.622;2023-02-18T05:18:04;100941.13;;;5.13;72.35
78144;BME280;67394;52.522;13.622;2023-02-18T05:20:31;100936.19;;;5.18;71.94
78144;BME280;67394;52.522;13.622;2023-02-18T05:22:57;100937.91;;;5.19;72.31
78144;BME280;67394;52.522;13.622;2023-02-18T05:25:24;100938.72;;;5.18;72.66
78144;BME280;67394;52.522;13.622;2023-02-18T05:27:50;100936.22;;;5.19;72.16
78144;BME280;67394;52.522;13.622;2023-02-18T05:30:17;100941.22;;;5.16;72.46
78144;BME280;67394;52.522;13.622;2023-02-18T05:32:43;100938.81;;;5.22;71.53
78144;BME280;67394;52.522;13.622;2023-02-18T05:35:09;100935.38;;;5.19;71.61
78144;BME280;67394;52.522;13.622;2023-02-18T05:37:36;100924.22;;;5.13;72.92
78144;BME280;67394;52.522;13.622;2023-02-18T05:40:03;100920.19;;;5.22;71.88
78144;BME280;67394;52.522;13.622;2023-02-18T05:42:30;100923.53;;;5.19;72.14
78144;BME280;67394;52.522;13.622;2023-02-18T05:44:56;100925.47;;;5.29;71.24
78144;BME280;67394;52.522;13.622;2023-02-18T05:47:22;100922.13;;;5.32;71.28
78144;BME280;67394;52.522;13.622;2023-02-18T05:49:49;100917.81;;;5.28;71.19
78144;BME280;67394;52.522;13.622;2023-02-18T05:52:15;100911.06;;;5.30;71.69
78144;BME280;67394;52.522;13.622;2023-02-18T05:54:42;100910.31;;;5.34;70.50
78144;BME280;67394;52.522;13.622;2023-02-18T05:57:09;100918.84;;;5.36;71.26
78144;BME280;67394;52.522;13.622;2023-02-18T05:59:35;100916.31;;;5.36;71.12
78144;BME280;67394;52.522;13.622;2023-02-18T06:02:02;100918.88;;;5.37;71.38
78144;BME280;67394;52.522;13.622;2023-02-18T06:04:28;100926.47;;;5.36;71.00
78144;BME280;67394;52.522;13.622;2023-02-18T06:07:06;100918.94;;;5.40;70.76
78144;BME280;67394;52.522;13.622;2023-02-18T06:09:32;100919.94;;;5.45;70.10
78144;BME280;67394;52.522;13.622;2023-02-18T06:14:24;100926.81;;;5.51;69.71
78144;BME280;67394;52.522;13.622;2023-02-18T06:16:50;100923.38;;;5.47;70.74
78144;BME280;67394;52.522;13.622;2023-02-18T06:19:17;100923.50;;;5.53;70.03
78144;BME280;67394;52.522;13.622;2023-02-18T06:21:51;100924.41;;;5.56;70.69
78144;BME280;67394;52.522;13.622;2023-02-18T06:24:17;100915.84;;;5.52;69.97
78144;BME280;67394;52.522;13.622;2023-02-18T06:26:43;100923.63;;;5.58;69.79
78144;BME280;67394;52.522;13.622;2023-02-18T06:29:10;100916.09;;;5.61;69.52
78144;BME280;67394;52.522;13.622;2023-02-18T06:31:36;100922.25;;;5.72;68.71
78144;BME280;67394;52.522;13.622;2023-02-18T06:36:30;100918.84;;;5.70;69.31
78144;BME280;67394;52.522;13.622;2023-02-18T06:38:56;100922.94;;;5.65;69.76
78144;BME280;67394;52.522;13.622;2023-02-18T06:41:23;100912.72;;;5.64;69.56
78144;BME280;67394;52.522;13.622;2023-02-18T06:43:49;100911.81;;;5.60;69.97
78144;BME280;67394;52.522;13.622;2023-02-18T06:46:16;100918.84;;;5.70;69.29
78144;BME280;67394;52.522;13.622;2023-02-18T06:48:42;100914.56;;;5.69;68.94
78144;BME280;67394;52.522;13.622;2023-02-18T06:51:08;100898.53;;;5.73;69.26
78144;BME280;67394;52.522;13.622;2023-02-18T06:53:35;100903.72;;;5.76;68.84
78144;BME280;67394;52.522;13.622;2023-02-18T06:56:04;100903.63;;;5.72;69.47
78144;BME280;67394;52.522;13.622;2023-02-18T06:58:34;100904.44;;;5.71;70.07
78144;BME280;67394;52.522;13.622;2023-02-18T07:01:00;100907.00;;;5.72;69.83
78144;BME280;67394;52.522;13.622;2023-02-18T07:03:26;100904.44;;;5.71;69.57
78144;BME280;67394;52.522;13.622;2023-02-18T07:05:53;100904.53;;;5.75;69.86
78144;BME280;67394;52.522;13.622;2023-02-18T07:08:19;100911.38;;;5.78;69.58
78144;BME280;67394;52.522;13.622;2023-02-18T07:10:51;100912.31;;;5.83;70.08
78144;BME280;67394;52.522;13.622;2023-02-18T07:13:17;100908.28;;;5.90;68.99
78144;BME280;67394;52.522;13.622;2023-02-18T07:15:47;100898.16;;;5.91;68.90
78144;BME280;67394;52.522;13.622;2023-02-18T07:18:14;100895.56;;;5.90;69.93
78144;BME280;67394;52.522;13.622;2023-02-18T07:20:40;100899.69;;;5.86;70.32
78144;BME280;67394;52.522;13.622;2023-02-18T07:23:07;100900.66;;;5.90;69.77
78144;BME280;67394;52.522;13.622;2023-02-18T07:25:33;100898.16;;;5.91;70.24
78144;BME280;67394;52.522;13.622;2023-02-18T07:28:02;100886.38;;;5.96;70.01
78144;BME280;67394;52.522;13.622;2023-02-18T07:30:32;100879.72;;;6.01;69.42
78144;BME280;67394;52.522;13.622;2023-02-18T07:33:01;100878.88;;;6.01;69.64
78144;BME280;67394;52.522;13.622;2023-02-18T07:35:31;100882.41;;;6.09;69.65
78144;BME280;67394;52.522;13.622;2023-02-18T07:37:57;100881.63;;;6.11;68.55
78144;BME280;67394;52.522;13.622;2023-02-18T07:40:24;100887.63;;;6.15;69.30
78144;BME280;67394;52.522;13.622;2023-02-18T07:42:50;100884.28;;;6.17;68.76
78144;BME280;67394;52.522;13.622;2023-02-18T07:45:16;100885.25;;;6.22;69.29
78144;BME280;67394;52.522;13.622;2023-02-18T07:47:43;100881.19;;;6.31;68.23
78144;BME280;67394;52.522;13.622;2023-02-18T07:50:09;100872.66;;;6.29;68.91
78144;BME280;67394;52.522;13.622;2023-02-18T07:52:36;100868.41;;;6.29;68.89
78144;BME280;67394;52.522;13.622;2023-02-18T07:55:03;100872.75;;;6.33;69.26
78144;BME280;67394;52.522;13.622;2023-02-18T07:57:29;100865.94;;;6.32;69.00
78144;BME280;67394;52.522;13.622;2023-02-18T07:59:55;100866.84;;;6.36;69.23
78144;BME280;67394;52.522;13.622;2023-02-18T08:02:23;100863.56;;;6.41;69.31
78144;BME280;67394;52.522;13.622;2023-02-18T08:04:50;100868.66;;;6.41;69.94
78144;BME280;67394;52.522;13.622;2023-02-18T08:07:17;100861.84;;;6.40;69.69
78144;BME280;67394;52.522;13.622;2023-02-18T08:09:45;100861.09;;;6.44;70.06
78144;BME280;67394;52.522;13.622;2023-02-18T08:12:11;100858.59;;;6.46;69.35
78144;BME280;67394;52.522;13.622;2023-02-18T08:14:38;100854.31;;;6.45;70.99
78144;BME280;67394;52.522;13.622;2023-02-18T08:17:04;100844.16;;;6.45;70.95
78144;BME280;67394;52.522;13.622;2023-02-18T08:19:30;100838.28;;;6.50;70.56
78144;BME280;67394;52.522;13.622;2023-02-18T08:24:24;100834.56;;;6.33;72.49
78144;BME280;67394;52.522;13.622;2023-02-18T08:26:50;100820.06;;;6.29;72.96
78144;BME280;67394;52.522;13.622;2023-02-18T08:29:24;100822.56;;;6.28;73.07
78144;BME280;67394;52.522;13.622;2023-02-18T08:31:50;100820.91;;;6.30;72.67
78144;BME280;67394;52.522;13.622;2023-02-18T08:34:17;100820.13;;;6.32;74.12
78144;BME280;67394;52.522;13.622;2023-02-18T08:36:43;100818.28;;;6.23;73.89
78144;BME280;67394;52.522;13.622;2023-02-18T08:39:09;100811.47;;;6.22;73.57
78144;BME280;67394;52.522;13.622;2023-02-18T08:41:36;100805.66;;;6.30;73.63
78144;BME280;67394;52.522;13.622;2023-02-18T08:44:02;100811.47;;;6.22;74.65
78144;BME280;67394;52.522;13.622;2023-02-18T08:46:28;100809.72;;;6.20;75.39
78144;BME280;67394;52.522;13.622;2023-02-18T08:49:00;100812.16;;;6.15;75.72
78144;BME280;67394;52.522;13.622;2023-02-18T08:51:27;100807.13;;;6.18;76.25
78144;BME280;67394;52.522;13.622;2023-02-18T08:53:53;100794.38;;;6.17;75.83
78144;BME280;67394;52.522;13.622;2023-02-18T08:56:19;100804.50;;;6.15;76.70
78144;BME280;67394;52.522;13.622;2023-02-18T08:58:46;100797.75;;;6.14;75.96
78144;BME280;67394;52.522;13.622;2023-02-18T09:01:12;100802.72;;;6.10;76.29
78144;BME280;67394;52.522;13.622;2023-02-18T09:03:39;100801.94;;;6.12;77.53
78144;BME280;67394;52.522;13.622;2023-02-18T09:06:06;100800.91;;;6.04;78.15
78144;BME280;67394;52.522;13.622;2023-02-18T09:08:33;100795.84;;;6.06;78.32
78144;BME280;67394;52.522;13.622;2023-02-18T09:11:03;100794.97;;;6.05;79.03
78144;BME280;67394;52.522;13.622;2023-02-18T09:16:00;100796.56;;;5.99;80.79
78144;BME280;67394;52.522;13.622;2023-02-18T09:18:27;100793.03;;;5.94;80.36
78144;BME280;67394;52.522;13.622;2023-02-18T09:20:58;100789.63;;;5.92;81.20
78144;BME280;67394;52.522;13.622;2023-02-18T09:23:38;100787.13;;;5.95;81.75
78144;BME280;67394;52.522;13.622;2023-02-18T09:26:07;100776.09;;;5.93;81.99
78144;BME280;67394;52.522;13.622;2023-02-18T09:28:35;100776.06;;;5.91;82.10
78144;BME280;67394;52.522;13.622;2023-02-18T09:31:06;100766.84;;;5.98;82.53
78144;BME280;67394;52.522;13.622;2023-02-18T09:33:35;100756.53;;;5.90;82.48
78144;BME280;67394;52.522;13.622;2023-02-18T09:36:01;100766.66;;;5.88;83.29
78144;BME280;67394;52.522;13.622;2023-02-18T09:38:28;100756.50;;;5.88;83.95
78144;BME280;67394;52.522;13.622;2023-02-18T09:41:25;100759.03;;;5.88;83.82
78144;BME280;67394;52.522;13.622;2023-02-18T09:43:56;100758.19;;;5.88;85.59
78144;BME280;67394;52.522;13.622;2023-02-18T09:46:35;100748.75;;;5.85;85.49
78144;BME280;67394;52.522;13.622;2023-02-18T09:49:07;100743.03;;;5.93;85.44
78144;BME280;67394;52.522;13.622;2023-02-18T09:51:37;100754.06;;;5.93;85.06
78144;BME280;67394;52.522;13.622;2023-02-18T09:54:03;100736.34;;;5.99;85.27
78144;BME280;67394;52.522;13.622;2023-02-18T09:56:32;100726.16;;;5.98;85.04
78144;BME280;67394;52.522;13.622;2023-02-18T10:04:03;100693.97;;;6.00;86.32
78144;BME280;67394;52.522;13.622;2023-02-18T10:06:33;100692.25;;;5.99;86.39
78144;BME280;67394;52.522;13.622;2023-02-18T10:11:30;100690.53;;;5.98;86.73
78144;BME280;67394;52.522;13.622;2023-02-18T10:13:58;100681.19;;;5.97;86.91
78144;BME280;67394;52.522;13.622;2023-02-18T10:16:26;100682.88;;;5.96;86.58
78144;BME280;67394;52.522;13.622;2023-02-18T10:18:58;100687.06;;;5.93;86.93
78144;BME280;67394;52.522;13.622;2023-02-18T10:21:28;100681.91;;;5.90;87.45
78144;BME280;67394;52.522;13.622;2023-02-18T10:24:05;100671.63;;;5.86;87.78
78144;BME280;67394;52.522;13.622;2023-02-18T10:26:36;100664.00;;;5.86;88.02
78144;BME280;67394;52.522;13.622;2023-02-18T10:29:03;100653.69;;;5.79;88.32
78144;BME280;67394;52.522;13.622;2023-02-18T10:31:41;100636.81;;;5.82;88.67
78144;BME280;67394;52.522;13.622;2023-02-18T10:35:03;100627.50;;;5.84;89.23
78144;BME280;67394;52.522;13.622;2023-02-18T10:40:05;100597.84;;;5.85;89.51
78144;BME280;67394;52.522;13.622;2023-02-18T10:45:31;100584.47;;;5.94;90.29
78144;BME280;67394;52.522;13.622;2023-02-18T10:51:24;100550.56;;;5.95;90.02
78144;BME280;67394;52.522;13.622;2023-02-18T10:53:52;100543.88;;;6.00;89.85
78144;BME280;67394;52.522;13.622;2023-02-18T10:56:36;100532.84;;;5.99;90.61
78144;BME280;67394;52.522;13.622;2023-02-18T11:01:37;100531.94;;;5.96;89.96
78144;BME280;67394;52.522;13.622;2023-02-18T11:04:16;100521.69;;;5.91;90.22
78144;BME280;67394;52.522;13.622;2023-02-18T11:06:45;100520.75;;;5.87;90.05
78144;BME280;67394;52.522;13.622;2023-02-18T11:11:50;100495.44;;;5.92;90.05
78144;BME280;67394;52.522;13.622;2023-02-18T11:14:45;100489.38;;;5.87;90.76
78144;BME280;67394;52.522;13.622;2023-02-18T11:17:19;100463.22;;;5.93;90.58
78144;BME280;67394;52.522;13.622;2023-02-18T11:19:58;100458.16;;;5.96;91.03
78144;BME280;67394;52.522;13.622;2023-02-18T11:22:28;100450.59;;;5.99;91.53
78144;BME280;67394;52.522;13.622;2023-02-18T11:24:57;100441.34;;;6.05;91.55
78144;BME280;67394;52.522;13.622;2023-02-18T11:27:40;100439.75;;;6.12;91.79
78144;BME280;67394;52.522;13.622;2023-02-18T11:30:20;100427.78;;;6.06;91.18
78144;BME280;67394;52.522;13.622;2023-02-18T11:32:57;100423.59;;;6.08;91.22
78144;BME280;67394;52.522;13.622;2023-02-18T11:35:27;100420.25;;;6.12;91.38
78144;BME280;67394;52.522;13.622;2023-02-18T11:37:56;100406.56;;;6.06;91.63
78144;BME280;67394;52.522;13.622;2023-02-18T11:40:34;100405.72;;;6.05;91.08
78144;BME280;67394;52.522;13.622;2023-02-18T11:43:14;100399.88;;;6.11;90.86
78144;BME280;67394;52.522;13.622;2023-02-18T11:45:42;100382.81;;;6.05;91.31
78144;BME280;67394;52.522;13.622;2023-02-18T11:48:16;100379.41;;;6.02;91.58
78144;BME280;67394;52.522;13.622;2023-02-18T11:50:43;100382.69;;;5.95;92.26
78144;BME280;67394;52.522;13.622;2023-02-18T11:53:32;100371.66;;;5.93;92.12
78144;BME280;67394;52.522;13.622;2023-02-18T11:56:01;100361.59;;;6.02;91.96
78144;BME280;67394;52.522;13.622;2023-02-18T11:58:37;100363.25;;;6.00;91.84
78144;BME280;67394;52.522;13.622;2023-02-18T12:01:05;100369.16;;;5.97;92.07
78144;BME280;67394;52.522;13.622;2023-02-18T12:06:27;100315.75;;;5.99;92.70
78144;BME280;67394;52.522;13.622;2023-02-18T12:09:00;100333.63;;;6.05;92.08
78144;BME280;67394;52.522;13.622;2023-02-18T12:11:36;100317.53;;;6.03;92.68
78144;BME280;67394;52.522;13.622;2023-02-18T12:14:18;100305.66;;;6.06;93.08
78144;BME280;67394;52.522;13.622;2023-02-18T12:16:52;100299.00;;;6.14;93.00
78144;BME280;67394;52.522;13.622;2023-02-18T12:27:28;100277.97;;;6.31;93.92
78144;BME280;67394;52.522;13.622;2023-02-18T12:38:56;100271.41;;;6.52;94.15
78144;BME280;67394;52.522;13.622;2023-02-18T12:41:35;100262.13;;;6.60;94.11
78144;BME280;67394;52.522;13.622;2023-02-18T12:44:16;100248.56;;;6.61;94.89
78144;BME280;67394;52.522;13.622;2023-02-18T12:55:11;100236.13;;;7.01;95.35
78144;BME280;67394;52.522;13.622;2023-02-18T12:57:50;100228.63;;;7.19;95.79
78144;BME280;67394;52.522;13.622;2023-02-18T13:00:49;100220.25;;;7.39;95.30
78144;BME280;67394;52.522;13.622;2023-02-18T13:14:52;100192.47;;;8.27;94.01
78144;BME280;67394;52.522;13.622;2023-02-18T13:17:20;100194.22;;;8.44;94.67
78144;BME280;67394;52.522;13.622;2023-02-18T13:22:22;100177.19;;;8.69;93.55
78144;BME280;67394;52.522;13.622;2023-02-18T13:24:54;100183.16;;;8.88;93.86
78144;BME280;67394;52.522;13.622;2023-02-18T13:27:42;100166.09;;;8.90;93.50
78144;BME280;67394;52.522;13.622;2023-02-18T13:30:27;100166.09;;;8.92;93.12
78144;BME280;67394;52.522;13.622;2023-02-18T13:35:39;100176.31;;;8.95;93.69
78144;BME280;67394;52.522;13.622;2023-02-18T13:41:08;100180.59;;;9.00;94.07
78144;BME280;67394;52.522;13.622;2023-02-18T13:43:35;100173.75;;;9.08;93.94
78144;BME280;67394;52.522;13.622;2023-02-18T13:48:30;100172.88;;;9.11;93.82
78144;BME280;67394;52.522;13.622;2023-02-18T13:51:03;100152.41;;;9.17;93.46
78144;BME280;67394;52.522;13.622;2023-02-18T13:53:35;100157.53;;;9.22;93.40
78144;BME280;67394;52.522;13.622;2023-02-18T13:56:06;100152.38;;;9.25;93.84
78144;BME280;67394;52.522;13.622;2023-02-18T13:58:48;100143.00;;;9.25;93.77
78144;BME280;67394;52.522;13.622;2023-02-18T14:01:30;100146.38;;;9.33;93.60
78144;BME280;67394;52.522;13.622;2023-02-18T14:04:02;100147.22;;;9.35;92.74
78144;BME280;67394;52.522;13.622;2023-02-18T14:06:35;100145.53;;;9.33;93.10
78144;BME280;67394;52.522;13.622;2023-02-18T14:11:46;100147.22;;;9.41;92.88
78144;BME280;67394;52.522;13.622;2023-02-18T14:20:21;100146.41;;;9.32;93.29
78144;BME280;67394;52.522;13.622;2023-02-18T14:22:47;100127.66;;;9.31;93.65
78144;BME280;67394;52.522;13.622;2023-02-18T14:25:32;100141.28;;;9.30;93.99
78144;BME280;67394;52.522;13.622;2023-02-18T14:28:33;100149.81;;;9.29;93.10
78144;BME280;67394;52.522;13.622;2023-02-18T14:30:50;100162.56;;;9.34;92.90
78144;BME280;67394;52.522;13.622;2023-02-18T14:33:17;100164.28;;;9.33;92.68
78144;BME280;67394;52.522;13.622;2023-02-18T14:35:59;100161.72;;;9.33;92.47
78144;BME280;67394;52.522;13.622;2023-02-18T14:38:40;100162.53;;;9.43;92.30
78144;BME280;67394;52.522;13.622;2023-02-18T14:50:19;100180.47;;;9.37;92.80
78144;BME280;67394;52.522;13.622;2023-02-18T14:52:52;100160.88;;;9.37;92.65
78144;BME280;67394;52.522;13.622;2023-02-18T14:55:26;100164.22;;;9.48;91.09
78144;BME280;67394;52.522;13.622;2023-02-18T14:58:03;100181.28;;;9.46;91.00
78144;BME280;67394;52.522;13.622;2023-02-18T15:00:39;100191.50;;;9.52;91.03
78144;BME280;67394;52.522;13.622;2023-02-18T15:03:14;100188.09;;;9.46;91.99
78144;BME280;67394;52.522;13.622;2023-02-18T15:05:41;100183.00;;;9.44;91.07
78144;BME280;67394;52.522;13.622;2023-02-18T15:08:22;100170.19;;;9.46;90.52
78144;BME280;67394;52.522;13.622;2023-02-18T15:10:56;100174.50;;;9.39;91.49
78144;BME280;67394;52.522;13.622;2023-02-18T15:13:32;100166.81;;;9.33;91.35
78144;BME280;67394;52.522;13.622;2023-02-18T15:16:03;100181.34;;;9.31;92.43